createdAt,value
2022-11-20T00:00:18.929Z,97.32
2022-11-20T00:01:18.974Z,98.07
2022-11-20T00:02:18.964Z,97.96
2022-11-20T00:03:18.895Z,98.17
2022-11-20T00:04:18.976Z,98.02
2022-11-20T00:05:19.157Z,97.91
2022-11-20T00:06:18.860Z,97.91
2022-11-20T00:07:18.950Z,98.02
2022-11-20T00:08:18.853Z,97.81
2022-11-20T00:09:19.175Z,97.49
2022-11-20T00:10:19.180Z,97.27
2022-11-20T00:11:18.805Z,97.38
2022-11-20T00:12:18.826Z,97.60
2022-11-20T00:13:18.832Z,97.60
2022-11-20T00:14:18.764Z,97.49
2022-11-20T00:15:18.781Z,97.60
2022-11-20T00:16:18.758Z,97.49
2022-11-20T00:17:18.877Z,97.49
2022-11-20T00:18:18.730Z,97.70
2022-11-20T00:19:18.968Z,97.81
2022-11-20T00:20:18.708Z,97.91
2022-11-20T00:21:18.721Z,98.13
2022-11-20T00:22:18.841Z,98.30
2022-11-20T00:23:18.679Z,97.87
2022-11-20T00:24:18.705Z,97.66
2022-11-20T00:25:18.672Z,97.44
2022-11-20T00:26:18.690Z,96.81
2022-11-20T00:27:18.670Z,96.59
2022-11-20T00:28:18.694Z,96.91
2022-11-20T00:29:18.767Z,97.44
2022-11-20T00:30:18.685Z,97.66
2022-11-20T00:31:18.594Z,97.13
2022-11-20T00:32:18.845Z,97.44
2022-11-20T00:33:18.563Z,97.55
2022-11-20T00:34:18.759Z,97.23
2022-11-20T00:35:18.564Z,96.91
2022-11-20T00:36:18.535Z,96.70
2022-11-20T00:37:18.555Z,96.48
2022-11-20T00:38:18.538Z,96.59
2022-11-20T00:39:18.928Z,96.91
2022-11-20T00:40:18.524Z,96.81
2022-11-20T00:41:18.511Z,97.13
2022-11-20T00:42:19.323Z,96.70
2022-11-20T00:43:18.461Z,96.27
2022-11-20T00:44:18.461Z,96.70
2022-11-20T00:45:18.590Z,97.13
2022-11-20T00:46:18.626Z,97.34
2022-11-20T00:47:18.429Z,97.44
2022-11-20T00:48:19.208Z,97.34
2022-11-20T00:49:18.659Z,97.23
2022-11-20T00:50:18.425Z,97.13
2022-11-20T00:51:18.401Z,97.34
2022-11-20T00:52:18.389Z,97.66
2022-11-20T00:53:18.354Z,97.44
2022-11-20T00:54:18.350Z,97.44
2022-11-20T00:55:18.330Z,97.19
2022-11-20T00:56:18.360Z,96.87
2022-11-20T00:57:18.310Z,97.02
2022-11-20T00:58:18.324Z,96.59
2022-11-20T00:59:18.542Z,96.06
2022-11-20T01:00:18.287Z,96.06
2022-11-20T01:01:18.406Z,96.48
2022-11-20T01:02:18.289Z,96.81
2022-11-20T01:03:20.530Z,97.13
2022-11-20T01:04:18.349Z,97.23
2022-11-20T01:05:18.227Z,96.91
2022-11-20T01:06:18.235Z,96.70
2022-11-20T01:07:18.214Z,96.59
2022-11-20T01:08:18.206Z,96.27
2022-11-20T01:09:18.314Z,96.17
2022-11-20T01:10:18.177Z,96.70
2022-11-20T01:11:18.187Z,96.91
2022-11-20T01:12:18.379Z,97.13
2022-11-20T01:13:22.821Z,97.44
2022-11-20T01:14:18.771Z,97.76
2022-11-20T01:15:18.175Z,97.34
2022-11-20T01:16:18.135Z,97.13
2022-11-20T01:17:18.123Z,97.02
2022-11-20T01:18:18.102Z,97.34
2022-11-20T01:19:18.575Z,97.61
2022-11-20T01:20:18.083Z,97.61
2022-11-20T01:21:18.062Z,97.50
2022-11-20T01:22:18.039Z,97.61
2022-11-20T01:23:18.054Z,98.03
2022-11-20T01:24:18.048Z,97.93
2022-11-20T01:25:18.036Z,97.83
2022-11-20T01:26:18.018Z,97.83
2022-11-20T01:27:18.020Z,97.30
2022-11-20T01:28:17.989Z,97.19
2022-11-20T01:29:18.177Z,97.19
2022-11-20T01:30:17.965Z,97.40
2022-11-20T01:31:17.950Z,97.30
2022-11-20T01:32:17.940Z,97.19
2022-11-20T01:33:17.975Z,97.50
2022-11-20T01:34:17.952Z,97.50
2022-11-20T01:35:17.941Z,97.30
2022-11-20T01:36:17.901Z,97.30
2022-11-20T01:37:17.888Z,97.30
2022-11-20T01:38:17.903Z,97.72
2022-11-20T01:39:18.011Z,97.89
2022-11-20T01:40:17.860Z,97.67
2022-11-20T01:41:17.847Z,97.57
2022-11-20T01:42:17.826Z,97.46
2022-11-20T01:43:17.919Z,97.36
2022-11-20T01:44:17.820Z,97.36
2022-11-20T01:45:18.326Z,97.14
2022-11-20T01:46:17.798Z,97.25
2022-11-20T01:47:17.779Z,97.36
2022-11-20T01:48:17.777Z,97.57
2022-11-20T01:49:17.912Z,97.46
2022-11-20T01:50:17.765Z,97.14
2022-11-20T01:51:17.719Z,96.93
2022-11-20T01:52:17.751Z,96.97
2022-11-20T01:53:17.756Z,96.97
2022-11-20T01:54:17.703Z,97.19
2022-11-20T01:55:17.700Z,97.30
2022-11-20T01:56:17.700Z,96.97
2022-11-20T01:57:17.683Z,96.87
2022-11-20T01:58:17.755Z,96.76
2022-11-20T01:59:18.058Z,96.66
2022-11-20T02:00:17.643Z,97.08
2022-11-20T02:01:17.672Z,97.50
2022-11-20T02:02:17.606Z,97.61
2022-11-20T02:03:17.625Z,97.40
2022-11-20T02:04:17.606Z,97.50
2022-11-20T02:05:17.587Z,97.93
2022-11-20T02:06:17.573Z,98.36
2022-11-20T02:07:17.598Z,98.21
2022-11-20T02:08:17.592Z,98.21
2022-11-20T02:09:17.561Z,98.21
2022-11-20T02:10:17.551Z,98.21
2022-11-20T02:11:17.528Z,97.99
2022-11-20T02:12:17.530Z,97.78
2022-11-20T02:13:17.482Z,97.99
2022-11-20T02:14:17.502Z,98.10
2022-11-20T02:15:17.473Z,97.89
2022-11-20T02:16:17.480Z,97.78
2022-11-20T02:17:17.455Z,97.63
2022-11-20T02:18:17.443Z,97.20
2022-11-20T02:19:17.457Z,96.61
2022-11-20T02:20:17.489Z,96.30
2022-11-20T02:21:17.426Z,96.08
2022-11-20T02:22:17.413Z,96.40
2022-11-20T02:23:17.386Z,96.93
2022-11-20T02:24:17.377Z,97.57
2022-11-20T02:25:17.426Z,98.05
2022-11-20T02:26:18.257Z,98.48
2022-11-20T02:27:17.353Z,98.16
2022-11-20T02:28:17.345Z,97.20
2022-11-20T02:29:17.476Z,96.78
2022-11-20T02:30:17.354Z,96.67
2022-11-20T02:31:17.318Z,97.14
2022-11-20T02:32:17.290Z,97.57
2022-11-20T02:33:17.293Z,97.63
2022-11-20T02:34:17.324Z,97.52
2022-11-20T02:35:17.267Z,96.93
2022-11-20T02:36:17.277Z,96.19
2022-11-20T02:37:17.241Z,96.19
2022-11-20T02:38:17.236Z,96.50
2022-11-20T02:39:17.220Z,97.36
2022-11-20T02:40:17.234Z,97.78
2022-11-20T02:41:17.198Z,97.85
2022-11-20T02:42:17.185Z,97.85
2022-11-20T02:43:17.179Z,97.63
2022-11-20T02:44:17.184Z,97.52
2022-11-20T02:45:17.175Z,96.78
2022-11-20T02:46:17.147Z,96.99
2022-11-20T02:47:17.138Z,96.99
2022-11-20T02:48:17.124Z,96.78
2022-11-20T02:49:18.038Z,96.72
2022-11-20T02:50:17.151Z,96.72
2022-11-20T02:51:17.105Z,97.14
2022-11-20T02:52:17.078Z,96.72
2022-11-20T02:53:17.078Z,96.83
2022-11-20T02:54:17.070Z,96.93
2022-11-20T02:55:17.056Z,96.93
2022-11-20T02:56:17.070Z,96.83
2022-11-20T02:57:17.052Z,97.14
2022-11-20T02:58:17.015Z,96.93
2022-11-20T02:59:17.023Z,96.83
2022-11-20T03:00:17.009Z,97.14
2022-11-20T03:01:17.016Z,97.46
2022-11-20T03:02:16.981Z,97.25
2022-11-20T03:03:16.949Z,97.46
2022-11-20T03:04:16.953Z,97.67
2022-11-20T03:05:16.964Z,97.78
2022-11-20T03:06:16.953Z,97.74
2022-11-20T03:07:17.004Z,97.85
2022-11-20T03:08:16.908Z,97.95
2022-11-20T03:09:16.914Z,97.95
2022-11-20T03:10:16.903Z,97.52
2022-11-20T03:11:16.911Z,97.10
2022-11-20T03:12:16.905Z,97.31
2022-11-20T03:13:16.863Z,97.42
2022-11-20T03:14:16.874Z,97.63
2022-11-20T03:15:16.833Z,97.52
2022-11-20T03:16:16.889Z,97.42
2022-11-20T03:17:16.816Z,97.52
2022-11-20T03:18:16.836Z,97.52
2022-11-20T03:19:16.795Z,97.63
2022-11-20T03:20:16.803Z,97.74
2022-11-20T03:21:16.808Z,97.52
2022-11-20T03:22:16.832Z,97.85
2022-11-20T03:23:16.747Z,97.95
2022-11-20T03:24:16.767Z,97.95
2022-11-20T03:25:16.719Z,97.85
2022-11-20T03:26:16.739Z,97.74
2022-11-20T03:27:16.707Z,97.63
2022-11-20T03:28:16.717Z,97.63
2022-11-20T03:29:16.693Z,97.74
2022-11-20T03:30:16.702Z,97.31
2022-11-20T03:31:16.687Z,97.74
2022-11-20T03:32:16.650Z,97.85
2022-11-20T03:33:16.687Z,97.48
2022-11-20T03:34:16.634Z,98.01
2022-11-20T03:35:16.621Z,98.33
2022-11-20T03:36:16.658Z,98.01
2022-11-20T03:37:16.642Z,97.59
2022-11-20T03:38:16.626Z,97.59
2022-11-20T03:39:16.584Z,97.38
2022-11-20T03:40:16.582Z,97.38
2022-11-20T03:41:16.577Z,97.16
2022-11-20T03:42:16.547Z,97.38
2022-11-20T03:43:16.578Z,97.27
2022-11-20T03:44:16.553Z,97.27
2022-11-20T03:45:16.513Z,97.16
2022-11-20T03:46:16.514Z,97.31
2022-11-20T03:47:16.503Z,97.20
2022-11-20T03:48:16.544Z,97.10
2022-11-20T03:49:16.474Z,97.10
2022-11-20T03:50:16.483Z,97.52
2022-11-20T03:51:16.450Z,97.59
2022-11-20T03:52:16.442Z,97.59
2022-11-20T03:53:16.444Z,97.69
2022-11-20T03:54:16.450Z,97.59
2022-11-20T03:55:16.406Z,97.16
2022-11-20T03:56:16.400Z,97.27
2022-11-20T03:57:16.415Z,97.59
2022-11-20T03:58:16.373Z,97.63
2022-11-20T03:59:16.401Z,97.48
2022-11-20T04:00:16.370Z,97.48
2022-11-20T04:01:16.387Z,97.48
2022-11-20T04:02:16.363Z,97.16
2022-11-20T04:03:16.348Z,97.31
2022-11-20T04:04:16.359Z,97.31
2022-11-20T04:05:16.301Z,97.52
2022-11-20T04:06:16.283Z,97.42
2022-11-20T04:07:16.380Z,97.63
2022-11-20T04:08:16.290Z,97.91
2022-11-20T04:09:16.277Z,97.80
2022-11-20T04:10:16.264Z,97.63
2022-11-20T04:11:16.232Z,97.42
2022-11-20T04:12:16.223Z,97.42
2022-11-20T04:13:16.212Z,97.10
2022-11-20T04:14:16.194Z,97.10
2022-11-20T04:15:16.210Z,97.31
2022-11-20T04:16:16.195Z,97.42
2022-11-20T04:17:16.169Z,97.85
2022-11-20T04:18:16.152Z,97.95
2022-11-20T04:19:16.186Z,97.74
2022-11-20T04:20:16.159Z,97.74
2022-11-20T04:21:16.114Z,97.52
2022-11-20T04:22:16.105Z,97.52
2022-11-20T04:23:16.130Z,97.42
2022-11-20T04:24:16.099Z,97.52
2022-11-20T04:25:16.124Z,97.52
2022-11-20T04:26:16.115Z,97.42
2022-11-20T04:27:16.489Z,97.52
2022-11-20T04:28:16.040Z,97.63
2022-11-20T04:29:16.068Z,97.74
2022-11-20T04:30:16.180Z,97.74
2022-11-20T04:31:16.024Z,97.63
2022-11-20T04:32:15.996Z,97.57
2022-11-20T04:33:15.996Z,97.99
2022-11-20T04:34:15.993Z,98.38
2022-11-20T04:35:15.988Z,98.48
2022-11-20T04:36:16.009Z,98.27
2022-11-20T04:37:15.962Z,98.05
2022-11-20T04:38:15.938Z,98.16
2022-11-20T04:39:15.930Z,98.38
2022-11-20T04:40:15.936Z,98.27
2022-11-20T04:41:15.948Z,98.27
2022-11-20T04:42:15.897Z,97.95
2022-11-20T04:43:15.885Z,97.85
2022-11-20T04:44:15.919Z,97.85
2022-11-20T04:45:15.868Z,97.74
2022-11-20T04:46:15.866Z,98.05
2022-11-20T04:47:15.863Z,98.05
2022-11-20T04:48:15.890Z,97.89
2022-11-20T04:49:15.886Z,97.89
2022-11-20T04:50:15.867Z,97.95
2022-11-20T04:51:15.816Z,97.89
2022-11-20T04:52:15.822Z,97.85
2022-11-20T04:53:15.779Z,97.95
2022-11-20T04:54:15.786Z,98.27
2022-11-20T04:55:15.774Z,98.05
2022-11-20T04:56:15.744Z,97.99
2022-11-20T04:57:15.745Z,97.74
2022-11-20T04:58:15.740Z,97.95
2022-11-20T04:59:15.764Z,97.67
2022-11-20T05:00:15.765Z,97.67
2022-11-20T05:01:15.788Z,97.67
2022-11-20T05:02:15.691Z,97.85
2022-11-20T05:03:15.676Z,97.74
2022-11-20T05:04:15.664Z,97.67
2022-11-20T05:05:15.655Z,97.63
2022-11-20T05:06:15.646Z,97.99
2022-11-20T05:07:15.690Z,97.78
2022-11-20T05:08:15.624Z,97.89
2022-11-20T05:09:15.607Z,98.05
2022-11-20T05:10:15.607Z,98.05
2022-11-20T05:11:15.616Z,98.05
2022-11-20T05:12:15.618Z,97.99
2022-11-20T05:13:15.568Z,98.05
2022-11-20T05:14:15.590Z,98.27
2022-11-20T05:15:15.570Z,98.05
2022-11-20T05:16:15.541Z,97.89
2022-11-20T05:17:15.571Z,98.10
2022-11-20T05:18:15.574Z,97.78
2022-11-20T05:19:15.512Z,97.67
2022-11-20T05:20:15.492Z,97.67
2022-11-20T05:21:15.504Z,97.36
2022-11-20T05:22:15.471Z,97.46
2022-11-20T05:23:15.473Z,97.14
2022-11-20T05:24:15.470Z,96.93
2022-11-20T05:25:15.440Z,97.25
2022-11-20T05:26:15.432Z,97.25
2022-11-20T05:27:15.420Z,96.93
2022-11-20T05:28:15.411Z,96.83
2022-11-20T05:29:15.422Z,96.83
2022-11-20T05:30:15.378Z,96.72
2022-11-20T05:31:15.410Z,96.50
2022-11-20T05:32:15.360Z,96.61
2022-11-20T05:33:15.355Z,96.83
2022-11-20T05:34:15.347Z,96.93
2022-11-20T05:35:15.334Z,96.93
2022-11-20T05:36:15.347Z,97.04
2022-11-20T05:37:15.331Z,96.93
2022-11-20T05:38:15.306Z,97.36
2022-11-20T05:39:15.288Z,97.67
2022-11-20T05:40:15.280Z,97.67
2022-11-20T05:41:15.279Z,97.25
2022-11-20T05:42:15.281Z,97.25
2022-11-20T05:43:15.252Z,97.57
2022-11-20T05:44:15.254Z,97.67
2022-11-20T05:45:15.238Z,97.67
2022-11-20T05:46:15.218Z,97.67
2022-11-20T05:47:15.233Z,97.46
2022-11-20T05:48:15.198Z,97.57
2022-11-20T05:49:15.202Z,97.46
2022-11-20T05:50:15.189Z,97.04
2022-11-20T05:51:15.175Z,96.72
2022-11-20T05:52:15.184Z,96.40
2022-11-20T05:53:15.153Z,96.19
2022-11-20T05:54:15.156Z,96.55
2022-11-20T05:55:15.152Z,96.87
2022-11-20T05:56:15.115Z,97.19
2022-11-20T05:57:15.087Z,97.19
2022-11-20T05:58:15.087Z,96.66
2022-11-20T05:59:15.091Z,96.76
2022-11-20T06:00:15.058Z,96.97
2022-11-20T06:01:15.059Z,97.08
2022-11-20T06:02:15.071Z,97.08
2022-11-20T06:03:15.064Z,96.55
2022-11-20T06:04:15.047Z,96.12
2022-11-20T06:05:15.013Z,95.81
2022-11-20T06:06:15.020Z,95.70
2022-11-20T06:07:15.056Z,95.38
2022-11-20T06:08:15.011Z,95.42
2022-11-20T06:09:14.956Z,95.85
2022-11-20T06:10:14.966Z,96.34
2022-11-20T06:11:14.945Z,96.01
2022-11-20T06:12:14.958Z,96.38
2022-11-20T06:13:14.943Z,96.17
2022-11-20T06:14:14.932Z,96.17
2022-11-20T06:15:14.906Z,96.59
2022-11-20T06:16:14.903Z,96.59
2022-11-20T06:17:14.914Z,96.59
2022-11-20T06:18:14.938Z,96.38
2022-11-20T06:19:14.857Z,95.74
2022-11-20T06:20:14.842Z,96.17
2022-11-20T06:21:14.843Z,96.48
2022-11-20T06:22:14.824Z,95.85
2022-11-20T06:23:14.820Z,96.27
2022-11-20T06:24:14.841Z,96.48
2022-11-20T06:25:14.816Z,96.48
2022-11-20T06:26:14.778Z,96.27
2022-11-20T06:27:14.775Z,96.27
2022-11-20T06:28:14.774Z,95.95
2022-11-20T06:29:14.825Z,95.78
2022-11-20T06:30:14.815Z,95.68
2022-11-20T06:31:14.771Z,95.78
2022-11-20T06:32:14.728Z,96.00
2022-11-20T06:33:14.732Z,95.78
2022-11-20T06:34:14.709Z,96.00
2022-11-20T06:35:14.696Z,96.31
2022-11-20T06:36:14.686Z,96.64
2022-11-20T06:37:14.698Z,96.95
2022-11-20T06:38:14.668Z,97.06
2022-11-20T06:39:14.710Z,97.27
2022-11-20T06:40:14.650Z,97.06
2022-11-20T06:41:14.637Z,96.53
2022-11-20T06:42:14.626Z,96.53
2022-11-20T06:43:14.594Z,96.74
2022-11-20T06:44:14.601Z,96.85
2022-11-20T06:45:14.650Z,96.53
2022-11-20T06:46:14.574Z,96.53
2022-11-20T06:47:14.573Z,96.95
2022-11-20T06:48:14.556Z,97.49
2022-11-20T06:49:14.552Z,97.06
2022-11-20T06:50:14.537Z,97.17
2022-11-20T06:51:14.538Z,97.27
2022-11-20T06:52:14.545Z,96.95
2022-11-20T06:53:14.505Z,96.74
2022-11-20T06:54:14.489Z,96.31
2022-11-20T06:55:14.491Z,96.00
2022-11-20T06:56:14.488Z,95.61
2022-11-20T06:57:14.476Z,95.83
2022-11-20T06:58:14.456Z,96.04
2022-11-20T06:59:14.452Z,96.68
2022-11-20T07:00:14.475Z,96.68
2022-11-20T07:01:14.490Z,96.89
2022-11-20T07:02:14.456Z,97.00
2022-11-20T07:03:14.386Z,97.32
2022-11-20T07:04:14.397Z,97.32
2022-11-20T07:05:14.373Z,96.89
2022-11-20T07:06:14.368Z,96.41
2022-11-20T07:07:14.423Z,96.30
2022-11-20T07:08:14.337Z,96.30
2022-11-20T07:09:14.325Z,96.41
2022-11-20T07:10:14.373Z,95.76
2022-11-20T07:11:14.344Z,95.87
2022-11-20T07:12:14.299Z,96.08
2022-11-20T07:13:14.300Z,96.08
2022-11-20T07:14:14.271Z,96.57
2022-11-20T07:15:14.251Z,96.68
2022-11-20T07:16:14.282Z,95.72
2022-11-20T07:17:14.230Z,95.72
2022-11-20T07:18:14.246Z,95.83
2022-11-20T07:19:14.223Z,95.72
2022-11-20T07:20:14.230Z,95.72
2022-11-20T07:21:14.221Z,95.94
2022-11-20T07:22:14.201Z,95.83
2022-11-20T07:23:14.194Z,96.04
2022-11-20T07:24:14.202Z,96.15
2022-11-20T07:25:14.212Z,95.72
2022-11-20T07:26:14.139Z,95.87
2022-11-20T07:27:14.165Z,96.08
2022-11-20T07:28:14.153Z,95.98
2022-11-20T07:29:14.154Z,96.08
2022-11-20T07:30:14.116Z,96.41
2022-11-20T07:31:18.763Z,96.41
2022-11-20T07:32:14.087Z,96.41
2022-11-20T07:33:14.068Z,96.51
2022-11-20T07:34:14.088Z,96.83
2022-11-20T07:35:14.038Z,97.04
2022-11-20T07:36:14.093Z,97.15
2022-11-20T07:37:14.037Z,97.25
2022-11-20T07:38:14.001Z,97.36
2022-11-20T07:39:14.019Z,97.36
2022-11-20T07:40:14.015Z,97.25
2022-11-20T07:41:13.985Z,97.04
2022-11-20T07:42:13.979Z,96.61
2022-11-20T07:43:13.966Z,96.61
2022-11-20T07:44:13.974Z,96.55
2022-11-20T07:45:13.993Z,96.45
2022-11-20T07:46:13.934Z,96.34
2022-11-20T07:47:13.920Z,95.91
2022-11-20T07:48:13.921Z,96.34
2022-11-20T07:49:13.935Z,96.45
2022-11-20T07:50:13.915Z,96.45
2022-11-20T07:51:13.897Z,96.45
2022-11-20T07:52:13.874Z,96.45
2022-11-20T07:53:13.862Z,96.28
2022-11-20T07:54:13.839Z,96.17
2022-11-20T07:55:13.846Z,96.77
2022-11-20T07:56:13.838Z,96.98
2022-11-20T07:57:13.832Z,96.55
2022-11-20T07:58:13.797Z,96.45
2022-11-20T07:59:13.806Z,95.95
2022-11-20T08:00:13.781Z,95.74
2022-11-20T08:01:13.913Z,95.95
2022-11-20T08:02:13.767Z,95.85
2022-11-20T08:03:14.563Z,95.95
2022-11-20T08:04:13.741Z,96.17
2022-11-20T08:05:13.862Z,96.59
2022-11-20T08:06:13.710Z,96.59
2022-11-20T08:07:13.818Z,96.59
2022-11-20T08:08:13.698Z,96.59
2022-11-20T08:09:13.702Z,96.70
2022-11-20T08:10:13.671Z,96.85
2022-11-20T08:11:13.680Z,97.06
2022-11-20T08:12:13.657Z,97.06
2022-11-20T08:13:13.667Z,97.77
2022-11-20T08:14:13.659Z,97.98
2022-11-20T08:15:13.673Z,97.45
2022-11-20T08:16:13.615Z,96.59
2022-11-20T08:17:13.593Z,96.49
2022-11-20T08:19:13.639Z,96.00
2022-11-20T08:20:13.594Z,96.00
2022-11-20T08:21:13.566Z,96.21
2022-11-20T08:22:13.555Z,96.53
2022-11-20T08:23:13.549Z,96.42
2022-11-20T08:24:13.540Z,96.32
2022-11-20T08:25:13.537Z,96.32
2022-11-20T08:26:13.511Z,96.75
2022-11-20T08:27:13.522Z,96.96
2022-11-20T08:28:20.839Z,97.17
2022-11-20T08:29:13.487Z,97.28
2022-11-20T08:30:13.482Z,97.28
2022-11-20T08:31:13.463Z,97.17
2022-11-20T08:32:13.440Z,96.96
2022-11-20T08:33:13.432Z,96.85
2022-11-20T08:34:17.753Z,96.96
2022-11-20T08:35:13.424Z,96.75
2022-11-20T08:36:13.426Z,96.32
2022-11-20T08:37:13.376Z,96.15
2022-11-20T08:38:13.391Z,95.83
2022-11-20T08:39:13.392Z,96.25
2022-11-20T08:40:18.359Z,96.51
2022-11-20T08:41:13.359Z,96.47
2022-11-20T08:42:13.378Z,97.00
2022-11-20T08:43:13.326Z,96.89
2022-11-20T08:44:13.328Z,96.15
2022-11-20T08:45:13.362Z,96.15
2022-11-20T08:46:13.287Z,96.36
2022-11-20T08:47:13.296Z,96.68
2022-11-20T08:48:13.278Z,96.89
2022-11-20T08:49:14.105Z,96.64
2022-11-20T08:50:13.309Z,96.42
2022-11-20T08:51:13.278Z,96.32
2022-11-20T08:52:13.231Z,96.11
2022-11-20T08:53:13.222Z,96.32
2022-11-20T08:54:13.214Z,96.21
2022-11-20T08:55:13.223Z,96.32
2022-11-20T08:56:13.222Z,96.42
2022-11-20T08:57:13.218Z,96.11
2022-11-20T08:58:13.156Z,95.68
2022-11-20T09:00:13.648Z,95.25
2022-11-20T09:01:13.194Z,94.93
2022-11-20T09:02:13.140Z,95.36
2022-11-20T09:03:13.149Z,95.57
2022-11-20T09:04:13.107Z,95.47
2022-11-20T09:05:13.110Z,95.78
2022-11-20T09:06:13.073Z,96.11
2022-11-20T09:07:13.129Z,95.78
2022-11-20T09:08:13.091Z,95.78
2022-11-20T09:09:13.058Z,96.21
2022-11-20T09:10:28.416Z,96.32
2022-11-20T09:11:13.064Z,96.53
2022-11-20T09:12:13.007Z,96.00
2022-11-20T09:13:13.036Z,95.89
2022-11-20T09:14:13.054Z,96.11
2022-11-20T09:15:13.030Z,95.85
2022-11-20T09:16:12.979Z,95.68
2022-11-20T09:17:12.962Z,95.78
2022-11-20T09:18:12.968Z,95.89
2022-11-20T09:19:34.685Z,96.00
2022-11-20T09:20:12.984Z,96.11
2022-11-20T09:21:12.992Z,95.78
2022-11-20T09:22:12.905Z,96.00
2022-11-20T09:23:12.917Z,96.21
2022-11-20T09:24:12.907Z,96.32
2022-11-20T09:25:12.970Z,96.59
2022-11-20T09:26:12.858Z,96.11
2022-11-20T09:27:12.866Z,95.36
2022-11-20T09:28:12.855Z,95.25
2022-11-20T09:29:12.864Z,95.25
2022-11-20T09:30:12.819Z,95.57
2022-11-20T09:31:12.807Z,95.89
2022-11-20T09:32:12.871Z,96.32
2022-11-20T09:33:12.796Z,96.11
2022-11-20T09:34:12.774Z,96.21
2022-11-20T09:35:12.813Z,96.32
2022-11-20T09:36:12.755Z,96.42
2022-11-20T09:37:12.754Z,96.32
2022-11-20T09:38:12.805Z,96.15
2022-11-20T09:39:12.727Z,96.36
2022-11-20T09:40:12.788Z,96.36
2022-11-20T09:41:12.758Z,96.68
2022-11-20T09:42:16.684Z,96.47
2022-11-20T09:43:12.706Z,96.79
2022-11-20T09:44:12.699Z,96.79
2022-11-20T09:45:12.687Z,97.32
2022-11-20T09:46:12.669Z,97.11
2022-11-20T09:47:12.653Z,97.00
2022-11-20T09:48:12.643Z,96.75
2022-11-20T09:49:12.645Z,96.85
2022-11-20T09:50:12.650Z,96.85
2022-11-20T09:51:12.601Z,96.11
2022-11-20T09:52:12.598Z,96.32
2022-11-20T09:53:12.603Z,96.53
2022-11-20T09:54:12.576Z,96.53
2022-11-20T09:55:12.572Z,95.95
2022-11-20T09:56:12.571Z,96.06
2022-11-20T09:57:12.539Z,96.38
2022-11-20T09:58:12.542Z,95.70
2022-11-20T09:59:12.508Z,95.10
2022-11-20T10:00:12.511Z,95.10
2022-11-20T10:01:12.601Z,94.78
2022-11-20T10:02:12.495Z,94.46
2022-11-20T10:03:12.550Z,94.46
2022-11-20T10:04:12.526Z,94.68
2022-11-20T10:05:12.456Z,94.35
2022-11-20T10:06:12.480Z,94.68
2022-11-20T10:08:12.650Z,94.57
2022-11-20T10:09:12.412Z,95.00
2022-11-20T10:10:12.408Z,94.89
2022-11-20T10:11:12.395Z,94.78
2022-11-20T10:12:12.405Z,94.89
2022-11-20T10:13:12.343Z,94.57
2022-11-20T10:14:12.359Z,95.00
2022-11-20T10:15:12.345Z,94.89
2022-11-20T10:16:12.383Z,94.89
2022-11-20T10:17:12.346Z,94.57
2022-11-20T10:18:12.350Z,94.31
2022-11-20T10:19:12.333Z,93.72
2022-11-20T10:20:12.295Z,92.54
2022-11-20T10:21:12.270Z,92.86
2022-11-20T10:22:12.294Z,93.33
2022-11-20T10:23:12.288Z,94.04
2022-11-20T10:24:12.251Z,93.61
2022-11-20T10:25:12.263Z,92.86
2022-11-20T10:26:12.232Z,92.69
2022-11-20T10:27:12.253Z,92.80
2022-11-20T10:28:12.204Z,93.01
2022-11-20T10:29:12.213Z,92.91
2022-11-20T10:30:12.254Z,93.33
2022-11-20T10:31:12.181Z,93.54
2022-11-20T10:32:12.163Z,93.76
2022-11-20T10:33:12.164Z,93.54
2022-11-20T10:34:12.795Z,93.61
2022-11-20T10:35:12.137Z,93.65
2022-11-20T10:36:12.143Z,93.76
2022-11-20T10:37:12.111Z,93.97
2022-11-20T10:38:12.116Z,93.82
2022-11-20T10:39:12.102Z,93.40
2022-11-20T10:40:12.097Z,93.72
2022-11-20T10:41:12.066Z,94.46
2022-11-20T10:42:12.048Z,94.57
2022-11-20T10:43:12.091Z,94.46
2022-11-20T10:44:12.038Z,94.46
2022-11-20T10:45:12.036Z,93.99
2022-11-20T10:46:12.030Z,93.40
2022-11-20T10:47:12.009Z,93.46
2022-11-20T10:48:12.007Z,93.29
2022-11-20T10:49:11.977Z,92.86
2022-11-20T10:50:12.006Z,92.86
2022-11-20T10:51:11.965Z,92.86
2022-11-20T10:52:11.959Z,93.29
2022-11-20T10:53:11.954Z,93.29
2022-11-20T10:54:11.924Z,93.29
2022-11-20T10:55:11.943Z,93.72
2022-11-20T10:56:11.922Z,93.82
2022-11-20T10:57:11.896Z,93.40
2022-11-20T10:58:11.890Z,93.29
2022-11-20T10:59:11.908Z,93.29
2022-11-20T11:00:11.869Z,94.04
2022-11-20T11:01:11.931Z,94.04
2022-11-20T11:02:11.875Z,94.04
2022-11-20T11:03:11.829Z,93.40
2022-11-20T11:04:11.824Z,93.51
2022-11-20T11:05:14.602Z,93.29
2022-11-20T11:06:11.803Z,93.18
2022-11-20T11:07:11.806Z,93.51
2022-11-20T11:08:11.790Z,93.72
2022-11-20T11:09:11.777Z,93.82
2022-11-20T11:10:11.752Z,93.72
2022-11-20T11:11:11.796Z,93.82
2022-11-20T11:12:11.794Z,94.14
2022-11-20T11:13:11.729Z,93.40
2022-11-20T11:14:11.723Z,93.40
2022-11-20T11:15:11.707Z,93.72
2022-11-20T11:16:12.534Z,94.14
2022-11-20T11:17:11.746Z,94.21
2022-11-20T11:18:11.667Z,94.10
2022-11-20T11:19:11.660Z,94.10
2022-11-20T11:20:11.656Z,93.57
2022-11-20T11:21:11.650Z,93.57
2022-11-20T11:22:11.631Z,93.35
2022-11-20T11:23:11.631Z,93.57
2022-11-20T11:24:40.599Z,93.78
2022-11-20T11:25:11.598Z,93.89
2022-11-20T11:26:11.677Z,93.99
2022-11-20T11:27:16.473Z,94.04
2022-11-20T11:28:11.580Z,94.46
2022-11-20T11:29:11.572Z,94.57
2022-11-20T11:30:11.562Z,94.35
2022-11-20T11:31:11.529Z,94.46
2022-11-20T11:32:11.515Z,94.68
2022-11-20T11:33:11.506Z,95.10
2022-11-20T11:34:11.507Z,94.68
2022-11-20T11:35:11.544Z,95.00
2022-11-20T11:36:11.510Z,94.68
2022-11-20T11:37:11.468Z,94.68
2022-11-20T11:38:11.491Z,94.57
2022-11-20T11:39:11.442Z,94.68
2022-11-20T11:40:26.767Z,94.68
2022-11-20T11:41:11.424Z,94.35
2022-11-20T11:42:11.481Z,94.57
2022-11-20T11:43:11.411Z,94.53
2022-11-20T11:44:11.394Z,94.89
2022-11-20T11:45:11.400Z,94.46
2022-11-20T11:46:11.438Z,94.78
2022-11-20T11:47:11.376Z,94.95
2022-11-20T11:48:11.391Z,94.85
2022-11-20T11:49:11.367Z,94.85
2022-11-20T11:50:11.328Z,94.64
2022-11-20T11:51:11.332Z,94.53
2022-11-20T11:52:11.296Z,94.74
2022-11-20T11:53:11.316Z,94.74
2022-11-20T11:54:11.305Z,94.74
2022-11-20T11:55:11.920Z,94.89
2022-11-20T11:56:11.303Z,95.06
2022-11-20T11:57:11.252Z,95.28
2022-11-20T11:58:11.239Z,95.59
2022-11-20T11:59:11.244Z,95.59
2022-11-20T12:00:11.353Z,95.17
2022-11-20T12:01:11.239Z,94.74
2022-11-20T12:02:11.279Z,95.06
2022-11-20T12:03:11.203Z,95.38
2022-11-20T12:04:11.186Z,95.38
2022-11-20T12:05:11.165Z,95.17
2022-11-20T12:06:11.183Z,95.17
2022-11-20T12:07:38.985Z,95.17
2022-11-20T12:08:12.694Z,95.28
2022-11-20T12:09:11.127Z,95.38
2022-11-20T12:10:11.236Z,95.12
2022-11-20T12:11:11.155Z,95.45
2022-11-20T12:12:11.093Z,95.45
2022-11-20T12:13:11.133Z,95.23
2022-11-20T12:14:11.069Z,94.91
2022-11-20T12:15:11.069Z,95.17
2022-11-20T12:16:11.048Z,95.49
2022-11-20T12:17:11.044Z,95.55
2022-11-20T12:18:11.028Z,95.98
2022-11-20T12:19:11.040Z,96.08
2022-11-20T12:20:11.017Z,95.98
2022-11-20T12:21:11.015Z,95.87
2022-11-20T12:22:11.012Z,95.55
2022-11-20T12:23:10.974Z,95.55
2022-11-20T12:24:10.992Z,95.76
2022-11-20T12:25:10.945Z,95.55
2022-11-20T12:26:10.973Z,95.45
2022-11-20T12:27:10.929Z,95.76
2022-11-20T12:28:10.908Z,95.98
2022-11-20T12:29:10.940Z,96.08
2022-11-20T12:30:10.904Z,95.98
2022-11-20T12:31:10.943Z,95.76
2022-11-20T12:32:10.879Z,96.51
2022-11-20T12:33:10.872Z,96.83
2022-11-20T12:34:10.866Z,96.51
2022-11-20T12:35:11.726Z,96.36
2022-11-20T12:36:10.834Z,96.15
2022-11-20T12:37:10.848Z,95.94
2022-11-20T12:38:10.816Z,96.04
2022-11-20T12:39:10.805Z,96.04
2022-11-20T12:40:10.812Z,95.72
2022-11-20T12:41:10.796Z,95.51
2022-11-20T12:42:10.797Z,95.61
2022-11-20T12:43:10.756Z,96.04
2022-11-20T12:44:10.797Z,96.04
2022-11-20T12:45:10.786Z,96.78
2022-11-20T12:46:10.736Z,96.47
2022-11-20T12:47:10.718Z,96.36
2022-11-20T12:48:10.733Z,95.94
2022-11-20T12:49:10.706Z,95.94
2022-11-20T12:50:10.699Z,95.61
2022-11-20T12:51:15.531Z,95.61
2022-11-20T12:52:10.686Z,95.83
2022-11-20T12:53:10.668Z,95.72
2022-11-20T12:54:10.665Z,96.04
2022-11-20T12:55:10.638Z,96.15